createdAt,value
2019-03-15T00:00:02.902Z,2.25
2019-03-15T00:01:02.928Z,1.37
2019-03-15T00:02:03.396Z,1.19
2019-03-15T00:03:03.716Z,2.18
2019-03-15T00:04:03.645Z,1.31
2019-03-15T00:05:03.670Z,1.05
2019-03-15T00:06:03.561Z,1.81
2019-03-15T00:07:03.891Z,2.84
2019-03-15T00:08:03.478Z,1.56
2019-03-15T00:09:03.229Z,2.73
2019-03-15T00:10:03.478Z,2.99
2019-03-15T00:11:03.294Z,1.15
2019-03-15T00:12:02.814Z,2.4
2019-03-15T00:13:03.182Z,1.78
2019-03-15T00:14:03.608Z,2.49
2019-03-15T00:15:03.293Z,1.18
2019-03-15T00:16:03.549Z,2.91
2019-03-15T00:17:03.426Z,1.85
2019-03-15T00:18:03.653Z,3.28
2019-03-15T00:19:03.529Z,2.84
2019-03-15T00:20:03.439Z,1.34
2019-03-15T00:21:03.449Z,2.55
2019-03-15T00:22:03.372Z,1.67
2019-03-15T00:23:03.431Z,2.34
2019-03-15T00:24:03.291Z,2.75
2019-03-15T00:25:03.324Z,3.42
2019-03-15T00:26:03.005Z,2.15
2019-03-15T00:27:03.298Z,1.98
2019-03-15T00:28:03.127Z,2.29
2019-03-15T00:29:02.928Z,2.59
2019-03-15T00:30:02.953Z,1.92
2019-03-15T00:31:03.101Z,2.29
2019-03-15T00:32:02.703Z,2.19
2019-03-15T00:33:02.849Z,2.58
2019-03-15T00:34:02.771Z,6.59
2019-03-15T00:35:03.038Z,2.07
2019-03-15T00:36:02.779Z,2.43
2019-03-15T00:37:03.534Z,3.51
2019-03-15T00:38:02.968Z,3.07
2019-03-15T00:39:03.092Z,3.07
2019-03-15T00:40:02.867Z,2.52
2019-03-15T00:41:02.838Z,1.65
2019-03-15T00:42:02.750Z,1.65
2019-03-15T00:43:02.934Z,2.66
2019-03-15T00:44:02.959Z,2.66
2019-03-15T00:45:02.965Z,2.66
2019-03-15T00:46:02.460Z,2.66
2019-03-15T00:47:02.961Z,2.22
2019-03-15T00:48:02.919Z,2.14
2019-03-15T00:49:03.349Z,3.17
2019-03-15T00:50:02.634Z,5.18
2019-03-15T00:51:03.547Z,2.04
2019-03-15T00:52:03.364Z,6.23
2019-03-15T00:53:03.599Z,4.32
2019-03-15T00:54:03.461Z,3.21
2019-03-15T00:55:03.602Z,2.47
2019-03-15T00:56:02.688Z,2.95
2019-03-15T00:57:03.343Z,4.59
2019-03-15T00:58:03.321Z,2.56
2019-03-15T00:59:03.709Z,3.94
2019-03-15T01:00:03.747Z,3.66
2019-03-15T01:01:03.510Z,1.97
2019-03-15T01:02:03.153Z,2.54
2019-03-15T01:03:03.205Z,4.6
2019-03-15T01:04:03.321Z,4.68
2019-03-15T01:05:03.715Z,7.48
2019-03-15T01:06:02.941Z,3.06
2019-03-15T01:07:03.134Z,2.61
2019-03-15T01:08:03.434Z,3.12
2019-03-15T01:09:03.177Z,2.7
2019-03-15T01:10:03.312Z,2.39
2019-03-15T01:11:03.439Z,3.22
2019-03-15T01:12:03.489Z,6.14
2019-03-15T01:13:03.383Z,2.8
2019-03-15T01:14:03.035Z,5.09
2019-03-15T01:15:02.956Z,4.19
2019-03-15T01:16:03.326Z,2.46
2019-03-15T01:17:02.924Z,2.82
2019-03-15T01:18:03.083Z,5.86
2019-03-15T01:19:02.961Z,6.11
2019-03-15T01:20:03.037Z,6.46
2019-03-15T01:21:02.806Z,4.31
2019-03-15T01:22:03.070Z,3.65
2019-03-15T01:23:02.969Z,5
2019-03-15T01:24:02.953Z,3.91
2019-03-15T01:25:02.889Z,3.79
2019-03-15T01:26:02.743Z,3.02
2019-03-15T01:27:02.963Z,8.24
2019-03-15T01:28:02.822Z,3.8
2019-03-15T01:29:02.807Z,4.7
2019-03-15T01:30:02.748Z,3.9
2019-03-15T01:31:02.830Z,4.36
2019-03-15T01:32:02.775Z,4.36
2019-03-15T01:33:03.327Z,4.97
2019-03-15T01:34:03.682Z,4.97
2019-03-15T01:35:03.862Z,3.95
2019-03-15T01:36:03.651Z,5.49
2019-03-15T01:37:03.408Z,4.14
2019-03-15T01:38:03.517Z,4.35
2019-03-15T01:39:03.490Z,9.26
2019-03-15T01:40:03.350Z,5.04
2019-03-15T01:41:04.263Z,7.59
2019-03-15T01:42:03.149Z,6.01
2019-03-15T01:43:03.686Z,13.72
2019-03-15T01:44:03.597Z,6.34
2019-03-15T01:45:02.928Z,6.96
2019-03-15T01:46:03.380Z,6.15
2019-03-15T01:47:03.368Z,4.69
2019-03-15T01:48:03.149Z,6.89
2019-03-15T01:49:03.134Z,3.65
2019-03-15T01:50:03.174Z,7.17
2019-03-15T01:51:03.189Z,4.23
2019-03-15T01:52:01.652Z,4.46
2019-03-15T01:53:03.071Z,5.02
2019-03-15T01:54:02.932Z,5.29
2019-03-15T01:55:03.003Z,3.69
2019-03-15T01:56:03.037Z,6.86
2019-03-15T01:57:03.002Z,5.23
2019-03-15T01:58:03.088Z,6.32
2019-03-15T01:59:02.721Z,5.87
2019-03-15T02:00:02.580Z,6.42
2019-03-15T02:01:04.503Z,5.45
2019-03-15T02:02:02.819Z,6.21
2019-03-15T02:03:03.383Z,8.35
2019-03-15T02:04:02.726Z,5.24
2019-03-15T02:05:03.618Z,6.79
2019-03-15T02:06:02.694Z,6.7
2019-03-15T02:07:03.734Z,3.71
2019-03-15T02:08:03.674Z,8.84
2019-03-15T02:09:03.345Z,3.58
2019-03-15T02:10:03.576Z,6.86
2019-03-15T02:11:03.722Z,5.05
2019-03-15T02:12:03.379Z,10.09
2019-03-15T02:13:03.409Z,4.45
2019-03-15T02:14:03.494Z,10.83
2019-03-15T02:15:03.635Z,8.92
2019-03-15T02:16:03.156Z,9.39
2019-03-15T02:17:03.465Z,3.92
2019-03-15T02:18:03.456Z,4.95
2019-03-15T02:19:03.512Z,5.41
2019-03-15T02:20:03.303Z,4.54
2019-03-15T02:21:03.298Z,5.36
2019-03-15T02:22:03.393Z,5.36
2019-03-15T02:23:03.034Z,5.24
2019-03-15T02:24:03.438Z,5.24
2019-03-15T02:25:03.449Z,9.56
2019-03-15T02:26:03.527Z,10.88
2019-03-15T02:27:03.171Z,9.06
2019-03-15T02:28:03.384Z,5.88
2019-03-15T02:29:03.103Z,4.65
2019-03-15T02:30:03.264Z,7.3
2019-03-15T02:31:03.043Z,7.17
2019-03-15T02:32:03.103Z,5.02
2019-03-15T02:33:03.004Z,6.36
2019-03-15T02:34:02.982Z,7.56
2019-03-15T02:35:03.279Z,5.25
2019-03-15T02:36:02.836Z,7.36
2019-03-15T02:37:03.002Z,7.51
2019-03-15T02:38:02.923Z,7.56
2019-03-15T02:39:03.210Z,4.81
2019-03-15T02:40:02.577Z,7.89
2019-03-15T02:41:02.971Z,3.92
2019-03-15T02:42:02.909Z,5.18
2019-03-15T02:43:02.659Z,5.74
2019-03-15T02:44:02.712Z,4.44
2019-03-15T02:45:03.010Z,4.83
2019-03-15T02:46:02.897Z,7.44
2019-03-15T02:47:03.641Z,4.6
2019-03-15T02:48:02.904Z,5.47
2019-03-15T02:49:03.602Z,10.06
2019-03-15T02:50:02.802Z,3.86
2019-03-15T02:51:02.788Z,2.84
2019-03-15T02:52:03.674Z,4.02
2019-03-15T02:53:03.565Z,2.31
2019-03-15T02:54:03.505Z,3.64
2019-03-15T02:55:03.667Z,3.99
2019-03-15T02:56:03.806Z,4.42
2019-03-15T02:57:03.553Z,3.01
2019-03-15T02:58:03.044Z,3.44
2019-03-15T02:59:03.555Z,6.06
2019-03-15T03:00:03.466Z,6.48
2019-03-15T03:01:03.659Z,3.76
2019-03-15T03:02:03.695Z,5.47
2019-03-15T03:03:03.495Z,3.1
2019-03-15T03:04:03.500Z,3.54
2019-03-15T03:05:03.333Z,6.94
2019-03-15T03:06:03.584Z,4.45
2019-03-15T03:07:03.577Z,4.93
2019-03-15T03:08:03.506Z,4.79
2019-03-15T03:09:03.503Z,4.79
2019-03-15T03:10:03.341Z,10.26
2019-03-15T03:11:02.998Z,8.08
2019-03-15T03:12:03.238Z,8.08
2019-03-15T03:13:03.026Z,4.41
2019-03-15T03:14:04.262Z,4.41
2019-03-15T03:15:03.095Z,8.69
2019-03-15T03:16:02.774Z,4.84
2019-03-15T03:17:03.188Z,4.88
2019-03-15T03:18:02.797Z,4.26
2019-03-15T03:19:02.970Z,7.36
2019-03-15T03:20:03.204Z,8.83
2019-03-15T03:21:02.867Z,7.09
2019-03-15T03:22:03.114Z,5.82
2019-03-15T03:23:04.013Z,5.09
2019-03-15T03:24:03.574Z,6.75
2019-03-15T03:25:03.029Z,5.3
2019-03-15T03:26:03.676Z,3.08
2019-03-15T03:27:02.633Z,6.48
2019-03-15T03:28:02.490Z,7.65
2019-03-15T03:29:03.653Z,3.38
2019-03-15T03:30:02.875Z,4.02
2019-03-15T03:31:03.521Z,7.37
2019-03-15T03:32:02.987Z,3.85
2019-03-15T03:33:03.166Z,9.96
2019-03-15T03:34:02.841Z,6.48
2019-03-15T03:35:03.063Z,4.91
2019-03-15T03:36:03.546Z,12.58
2019-03-15T03:37:03.472Z,6.54
2019-03-15T03:38:03.615Z,7.22
2019-03-15T03:39:03.439Z,6.62
2019-03-15T03:40:03.465Z,4.9
2019-03-15T03:41:03.166Z,7.31
2019-03-15T03:42:03.453Z,3.85
2019-03-15T03:43:03.496Z,6.25
2019-03-15T03:44:03.434Z,8.58
2019-03-15T03:45:03.507Z,4.42
2019-03-15T03:46:03.369Z,5.01
2019-03-15T03:47:03.454Z,7.54
2019-03-15T03:48:03.612Z,3.61
2019-03-15T03:49:03.399Z,2.61
2019-03-15T03:50:03.309Z,3.24
2019-03-15T03:51:03.296Z,4.05
2019-03-15T03:52:03.194Z,6.52
2019-03-15T03:53:02.966Z,6.59
2019-03-15T03:54:04.255Z,5.01
2019-03-15T03:55:03.343Z,6.22
2019-03-15T03:56:03.064Z,4.79
2019-03-15T03:57:03.277Z,3.69
2019-03-15T03:58:03.059Z,4.14
2019-03-15T03:59:03.293Z,4.14
2019-03-15T04:00:02.942Z,3.07
2019-03-15T04:01:03.376Z,3.07
2019-03-15T04:02:02.821Z,3.28
2019-03-15T04:03:02.634Z,3.8
2019-03-15T04:04:02.896Z,3.8
2019-03-15T04:05:02.751Z,3.04
2019-03-15T04:06:02.850Z,4.32
2019-03-15T04:07:02.907Z,5.12
2019-03-15T04:08:02.657Z,3.41
2019-03-15T04:09:03.654Z,5.89
2019-03-15T04:10:05.545Z,5.72
2019-03-15T04:11:03.774Z,3.71
2019-03-15T04:12:03.624Z,5.19
2019-03-15T04:13:03.344Z,6.61
2019-03-15T04:14:03.752Z,6.61
2019-03-15T04:15:03.716Z,3.87
2019-03-15T04:16:03.500Z,5.25
2019-03-15T04:17:03.407Z,5.86
2019-03-15T04:18:05.269Z,6.27
2019-03-15T04:19:03.369Z,8.81
2019-03-15T04:20:03.391Z,4.18
2019-03-15T04:21:03.690Z,5.17
2019-03-15T04:22:03.189Z,6.71
2019-03-15T04:23:03.647Z,4.72
2019-03-15T04:24:03.196Z,6.17
2019-03-15T04:25:04.676Z,4.95
2019-03-15T04:26:03.194Z,11.28
2019-03-15T04:27:03.502Z,9.73
2019-03-15T04:28:03.304Z,6.68
2019-03-15T04:29:03.284Z,6.03
2019-03-15T04:30:03.270Z,9.32
2019-03-15T04:31:02.899Z,9.58
2019-03-15T04:32:03.246Z,8.01
2019-03-15T04:33:02.994Z,10.99
2019-03-15T04:34:03.109Z,6.62
2019-03-15T04:35:03.130Z,8.1
2019-03-15T04:36:03.163Z,7.08
2019-03-15T04:37:02.916Z,8.45
2019-03-15T04:38:03.065Z,12.18
2019-03-15T04:39:02.879Z,11.86
2019-03-15T04:40:02.994Z,9.14
2019-03-15T04:41:02.727Z,6.08
2019-03-15T04:42:03.657Z,5.99
2019-03-15T04:43:02.771Z,12.41
2019-03-15T04:44:03.573Z,7.49
2019-03-15T04:45:03.068Z,11.97
2019-03-15T04:46:03.632Z,6.62
2019-03-15T04:47:02.931Z,9.1
2019-03-15T04:48:02.841Z,6.76
2019-03-15T04:49:02.748Z,6.76
2019-03-15T04:50:03.612Z,7.12
2019-03-15T04:51:02.707Z,6.98
2019-03-15T04:52:03.664Z,6.98
2019-03-15T04:53:03.642Z,6.16
2019-03-15T04:54:05.488Z,6.16
2019-03-15T04:55:03.552Z,9.99
2019-03-15T04:56:03.614Z,7.03
2019-03-15T04:57:03.459Z,8.72
2019-03-15T04:58:03.498Z,7.71
2019-03-15T04:59:03.452Z,10.95
2019-03-15T05:00:03.627Z,8.06
2019-03-15T05:01:03.394Z,13.95
2019-03-15T05:02:04.155Z,13.43
2019-03-15T05:03:03.216Z,8.32
2019-03-15T05:04:03.143Z,12.45
2019-03-15T05:05:03.371Z,8.25
2019-03-15T05:06:04.058Z,11.22
2019-03-15T05:07:03.613Z,7.45
2019-03-15T05:08:03.299Z,9.23
2019-03-15T05:09:03.482Z,9.31
2019-03-15T05:10:03.209Z,7.82
2019-03-15T05:11:03.267Z,8.49
2019-03-15T05:12:03.130Z,10.7
2019-03-15T05:13:03.553Z,13.01
2019-03-15T05:14:03.608Z,9.32
2019-03-15T05:15:03.560Z,10.84
2019-03-15T05:16:03.271Z,7.9
2019-03-15T05:17:03.317Z,11.51
2019-03-15T05:18:03.353Z,6.68
2019-03-15T05:19:03.021Z,10.18
2019-03-15T05:20:03.475Z,13.64
2019-03-15T05:21:02.941Z,11.84
2019-03-15T05:22:02.887Z,9.38
2019-03-15T05:23:02.906Z,10.01
2019-03-15T05:24:03.396Z,8.79
2019-03-15T05:25:03.184Z,9.7
2019-03-15T05:26:03.033Z,13.46
2019-03-15T05:27:03.104Z,8.76
2019-03-15T05:28:02.875Z,11.32
2019-03-15T05:29:02.626Z,5.33
2019-03-15T05:30:02.928Z,7.56
2019-03-15T05:31:02.783Z,8.65
2019-03-15T05:32:02.881Z,9.37
2019-03-15T05:33:03.759Z,9.41
2019-03-15T05:34:02.794Z,10.64
2019-03-15T05:35:02.827Z,17.22
2019-03-15T05:36:03.675Z,9.93
2019-03-15T05:37:02.677Z,8.5
2019-03-15T05:38:03.489Z,9.55
2019-03-15T05:39:03.605Z,9.55
2019-03-15T05:40:03.296Z,10.01
2019-03-15T05:41:03.465Z,11.48
2019-03-15T05:42:03.357Z,11.48
2019-03-15T05:43:03.319Z,6.51
2019-03-15T05:44:03.541Z,6.51
2019-03-15T05:45:03.662Z,6.8
2019-03-15T05:46:03.269Z,7.32
2019-03-15T05:47:03.349Z,7.32
2019-03-15T05:48:03.160Z,13.04
2019-03-15T05:49:03.279Z,10.54
2019-03-15T05:50:03.296Z,6.34
2019-03-15T05:51:03.343Z,7.51
2019-03-15T05:52:03.494Z,9.31
2019-03-15T05:53:03.210Z,7.83
2019-03-15T05:54:02.876Z,5.86
2019-03-15T05:55:03.608Z,7.62
2019-03-15T05:56:03.283Z,8.1
2019-03-15T05:57:03.174Z,10.66
2019-03-15T05:58:03.030Z,10.19
2019-03-15T05:59:03.023Z,7.13
2019-03-15T06:00:03.300Z,8.22
2019-03-15T06:01:02.673Z,10.51
2019-03-15T06:02:03.325Z,6.73
2019-03-15T06:03:03.052Z,7.16
2019-03-15T06:04:03.018Z,10.69
2019-03-15T06:05:03.473Z,7.56
2019-03-15T06:06:02.998Z,8.98
2019-03-15T06:07:02.834Z,8.98
2019-03-15T06:08:03.096Z,6.82
2019-03-15T06:09:02.700Z,13.31
2019-03-15T06:10:01.789Z,6.48
2019-03-15T06:11:02.574Z,6.76
2019-03-15T06:12:02.885Z,5.79
2019-03-15T06:13:02.765Z,6.32
2019-03-15T06:14:03.729Z,7.85
2019-03-15T06:15:02.932Z,5.28
2019-03-15T06:16:02.762Z,7.45
2019-03-15T06:17:02.938Z,9.42
2019-03-15T06:18:02.713Z,6.04
2019-03-15T06:19:03.669Z,7.04
2019-03-15T06:20:06.275Z,7.28
2019-03-15T06:21:02.222Z,5.55
2019-03-15T06:22:03.438Z,14.56
2019-03-15T06:23:03.180Z,6.61
2019-03-15T06:24:03.448Z,6.38
2019-03-15T06:25:03.477Z,6.94
2019-03-15T06:26:03.256Z,6.61
2019-03-15T06:27:03.398Z,9.49
2019-03-15T06:28:03.441Z,3.59
2019-03-15T06:29:03.192Z,3.59
2019-03-15T06:30:03.699Z,3.59
2019-03-15T06:31:03.145Z,10.68
2019-03-15T06:32:02.916Z,10.68
2019-03-15T06:33:02.616Z,8.76
2019-03-15T06:34:03.272Z,8.76
2019-03-15T06:35:03.313Z,5.43
2019-03-15T06:36:02.933Z,4.29
2019-03-15T06:37:03.328Z,6.96
2019-03-15T06:38:03.098Z,6.96
2019-03-15T06:39:02.816Z,6.06
2019-03-15T06:40:03.154Z,8.3
2019-03-15T06:41:02.779Z,4.65
2019-03-15T06:42:03.157Z,5.49
2019-03-15T06:43:02.951Z,8.09
2019-03-15T06:44:02.826Z,8.64
2019-03-15T06:45:02.993Z,6.33
2019-03-15T06:46:02.933Z,6.89
2019-03-15T06:47:03.095Z,5.94
2019-03-15T06:48:03.009Z,12.26
2019-03-15T06:49:02.944Z,6.13
2019-03-15T06:50:03.146Z,6.72
2019-03-15T06:51:02.895Z,5.59
2019-03-15T06:52:03.248Z,6.36
2019-03-15T06:53:03.129Z,6.06
2019-03-15T06:54:11.125Z,5.92
2019-03-15T06:55:05.241Z,12.6
2019-03-15T06:56:03.016Z,4.74
2019-03-15T06:57:02.805Z,6.41
2019-03-15T06:58:03.362Z,7.21
2019-03-15T06:59:02.989Z,6.69
2019-03-15T07:00:03.777Z,7.86
2019-03-15T07:01:03.047Z,7.08
2019-03-15T07:02:02.676Z,10.49
2019-03-15T07:03:02.669Z,7.39
2019-03-15T07:04:03.282Z,6.65
2019-03-15T07:05:03.148Z,11.35
2019-03-15T07:06:03.452Z,9.39
2019-03-15T07:07:03.582Z,9.35
2019-03-15T07:08:03.436Z,10.47
2019-03-15T07:09:02.899Z,13.43
2019-03-15T07:10:03.708Z,9.86
2019-03-15T07:11:02.692Z,9.01
2019-03-15T07:12:09.072Z,9.01
2019-03-15T07:13:03.539Z,6.29
2019-03-15T07:14:03.497Z,7.47
2019-03-15T07:15:03.506Z,8.96
2019-03-15T07:16:03.266Z,10.31
2019-03-15T07:17:03.426Z,7
2019-03-15T07:18:03.189Z,9.66
2019-03-15T07:19:03.367Z,9.49
2019-03-15T07:20:03.473Z,9.49
2019-03-15T07:21:03.267Z,5.12
2019-03-15T07:22:03.090Z,5.12
2019-03-15T07:23:03.161Z,6.95
2019-03-15T07:24:02.640Z,12.12
2019-03-15T07:25:02.744Z,9.74
2019-03-15T07:26:02.793Z,10.37
2019-03-15T07:27:12.477Z,13.06
2019-03-15T07:28:02.718Z,8.72
2019-03-15T07:29:02.931Z,6.9
2019-03-15T07:30:02.944Z,4.74
2019-03-15T07:31:02.769Z,9.98
2019-03-15T07:32:02.866Z,6.64
2019-03-15T07:33:02.609Z,9.26
2019-03-15T07:34:02.849Z,8.19
2019-03-15T07:35:03.682Z,7.47
2019-03-15T07:36:03.359Z,8.61
2019-03-15T07:37:03.220Z,8.61
2019-03-15T07:38:02.740Z,5.39
2019-03-15T07:39:03.646Z,8.68
2019-03-15T07:40:03.514Z,8.68
2019-03-15T07:41:03.383Z,8.08
2019-03-15T07:42:02.945Z,5.73
2019-03-15T07:43:05.164Z,10.42
2019-03-15T07:44:03.751Z,12.84
2019-03-15T07:45:03.441Z,4.84
2019-03-15T07:46:03.728Z,5.61
2019-03-15T07:47:03.366Z,7.89
2019-03-15T07:48:03.169Z,12.23
2019-03-15T07:49:03.531Z,7.01
2019-03-15T07:50:03.220Z,16.05
2019-03-15T07:51:02.854Z,16.05
2019-03-15T07:52:04.038Z,5.95
2019-03-15T07:53:03.223Z,7.87
2019-03-15T07:54:03.058Z,13.98
2019-03-15T07:55:02.994Z,13.98
2019-03-15T07:56:02.960Z,5.82
2019-03-15T07:57:03.608Z,6.24
2019-03-15T07:58:02.796Z,8.24
2019-03-15T07:59:02.775Z,8.24
2019-03-15T08:00:03.128Z,7.02
2019-03-15T08:01:02.905Z,7.62
2019-03-15T08:02:02.804Z,7.62
2019-03-15T08:03:02.919Z,4.74
2019-03-15T08:04:15.791Z,5.66
2019-03-15T08:05:02.954Z,5.66
2019-03-15T08:06:02.938Z,10.16
2019-03-15T08:07:02.812Z,8.79
2019-03-15T08:08:03.172Z,10.85
2019-03-15T08:09:02.633Z,8.85
2019-03-15T08:10:02.793Z,8.29
2019-03-15T08:11:03.589Z,7.56
2019-03-15T08:12:02.832Z,4.91
2019-03-15T08:13:03.481Z,9.01
2019-03-15T08:14:03.464Z,5.17
2019-03-15T08:15:02.805Z,9.25
2019-03-15T08:16:03.395Z,8.1
2019-03-15T08:17:03.526Z,4.59
2019-03-15T08:18:03.189Z,8.65
2019-03-15T08:19:04.919Z,5.76
2019-03-15T08:20:03.666Z,8.64
2019-03-15T08:21:02.377Z,9.75
2019-03-15T08:22:03.484Z,9.51
2019-03-15T08:23:03.436Z,9.98
2019-03-15T08:24:03.610Z,7.11
2019-03-15T08:25:03.567Z,7.36
2019-03-15T08:26:03.168Z,9.31
2019-03-15T08:27:03.587Z,10.96
2019-03-15T08:28:03.604Z,5.98
2019-03-15T08:29:03.636Z,8.05
2019-03-15T08:30:02.961Z,10.08
2019-03-15T08:31:02.838Z,5.42
2019-03-15T08:32:03.474Z,10.41
2019-03-15T08:33:09.836Z,16.69
2019-03-15T08:34:03.257Z,7.69
2019-03-15T08:35:04.291Z,4.84
2019-03-15T08:36:03.262Z,8.04
2019-03-15T08:37:02.998Z,6.14
2019-03-15T08:38:05.363Z,9.02
2019-03-15T08:39:03.408Z,5.16
2019-03-15T08:40:03.686Z,6.84
2019-03-15T08:41:03.562Z,6.99
2019-03-15T08:42:03.316Z,7.91
2019-03-15T08:43:03.152Z,5.24
2019-03-15T08:44:02.983Z,5.24
2019-03-15T08:45:02.155Z,8.58
2019-03-15T08:46:03.390Z,7.6
2019-03-15T08:47:02.871Z,7.6
2019-03-15T08:48:03.268Z,7.1
2019-03-15T08:49:02.871Z,6.54
2019-03-15T08:50:03.047Z,6.54
2019-03-15T08:51:03.128Z,9.32
2019-03-15T08:52:04.186Z,9.42
2019-03-15T08:53:02.989Z,7.34
2019-03-15T08:54:02.909Z,5.19
2019-03-15T08:55:05.330Z,8.19
2019-03-15T08:56:02.857Z,8.08
2019-03-15T08:57:02.876Z,11.2
2019-03-15T08:58:13.266Z,9.4
2019-03-15T08:59:03.657Z,9.2
2019-03-15T09:00:03.619Z,9.2
2019-03-15T09:01:03.390Z,8.11
2019-03-15T09:02:03.571Z,4.29
2019-03-15T09:03:02.434Z,8.54
2019-03-15T09:04:02.792Z,9.89
2019-03-15T09:05:02.919Z,13.59
2019-03-15T09:06:03.664Z,9.71
2019-03-15T09:07:03.443Z,5.51
2019-03-15T09:08:03.669Z,7.77
2019-03-15T09:09:03.387Z,6.79
2019-03-15T09:10:03.845Z,7.84
2019-03-15T09:11:03.422Z,8.97
2019-03-15T09:12:03.283Z,7.9
2019-03-15T09:13:03.131Z,7.55
2019-03-15T09:14:03.699Z,11.17
2019-03-15T09:15:03.536Z,6.01
2019-03-15T09:16:03.319Z,4.99
2019-03-15T09:17:03.193Z,11.68
2019-03-15T09:18:03.323Z,8.62
2019-03-15T09:19:03.323Z,6.61
2019-03-15T09:20:03.404Z,8.98
2019-03-15T09:21:01.539Z,9.34
2019-03-15T09:22:03.238Z,7.14
2019-03-15T09:23:03.353Z,9.04
2019-03-15T09:24:03.183Z,5.71
2019-03-15T09:25:02.926Z,11.74
2019-03-15T09:26:03.392Z,5.82
2019-03-15T09:27:03.186Z,4.98
2019-03-15T09:28:03.148Z,11.92
2019-03-15T09:29:03.429Z,6.97
2019-03-15T09:30:03.022Z,6.8
2019-03-15T09:31:02.884Z,9.15
2019-03-15T09:32:06.305Z,4.15
2019-03-15T09:33:03.349Z,4.15
2019-03-15T09:34:03.193Z,14.15
2019-03-15T09:35:03.048Z,14.15
2019-03-15T09:36:03.307Z,5.87
2019-03-15T09:37:02.979Z,5.89
2019-03-15T09:38:02.921Z,5.89
2019-03-15T09:39:03.134Z,9.76
2019-03-15T09:40:02.947Z,4.56
2019-03-15T09:41:02.936Z,4.56
2019-03-15T09:42:03.521Z,5.72
2019-03-15T09:43:02.706Z,8.11
2019-03-15T09:44:02.785Z,5.18
2019-03-15T09:45:02.697Z,6.35
2019-03-15T09:46:02.622Z,9.93
2019-03-15T09:47:03.849Z,7.88
2019-03-15T09:48:03.477Z,5.36
2019-03-15T09:49:03.800Z,5.84
2019-03-15T09:50:03.323Z,4.7
2019-03-15T09:51:03.406Z,4.06
2019-03-15T09:52:03.405Z,5.41
2019-03-15T09:53:05.884Z,5.29
2019-03-15T09:54:03.258Z,3.66
2019-03-15T09:55:03.343Z,3.11
2019-03-15T09:56:03.235Z,2.79
2019-03-15T09:57:03.214Z,1.32
2019-03-15T09:58:03.301Z,6.93
2019-03-15T09:59:03.064Z,3.29
2019-03-15T10:00:03.297Z,2.11
2019-03-15T10:01:03.783Z,1.86
2019-03-15T10:02:03.112Z,1.51
2019-03-15T10:03:02.929Z,1.5
2019-03-15T10:04:03.143Z,1.11
2019-03-15T10:05:10.445Z,2.2
2019-03-15T10:06:14.218Z,1.09
2019-03-15T10:07:02.808Z,1.2
2019-03-15T10:08:02.792Z,2.08
2019-03-15T10:09:03.720Z,0.85
2019-03-15T10:10:12.670Z,2.25
2019-03-15T10:11:03.496Z,3.14
2019-03-15T10:12:03.664Z,2.08
2019-03-15T10:13:06.048Z,1.61
2019-03-15T10:14:03.602Z,1.96
2019-03-15T10:15:03.564Z,0.62
2019-03-15T10:16:03.454Z,1.52
2019-03-15T10:17:03.683Z,4.66
2019-03-15T10:18:03.500Z,0.95
2019-03-15T10:19:03.628Z,0.95
2019-03-15T10:20:03.416Z,1.7
2019-03-15T10:21:03.597Z,1.7
2019-03-15T10:22:03.441Z,1.7
2019-03-15T10:23:06.186Z,1.34
2019-03-15T10:24:02.781Z,1.34
2019-03-15T10:25:03.454Z,1.96
2019-03-15T10:26:02.892Z,1.96
2019-03-15T10:27:03.623Z,1.21
2019-03-15T10:28:02.481Z,1.46
2019-03-15T10:29:14.483Z,1.29
2019-03-15T10:30:03.436Z,1.06
2019-03-15T10:31:03.426Z,0.9
2019-03-15T10:32:03.540Z,2.92
2019-03-15T10:33:03.124Z,2.26
2019-03-15T10:34:05.764Z,1.25
2019-03-15T10:35:03.419Z,1.63
2019-03-15T10:36:03.267Z,2.31
2019-03-15T10:37:05.972Z,3.66
2019-03-15T10:38:03.216Z,0.87
2019-03-15T10:39:03.096Z,2.44
2019-03-15T10:40:02.698Z,1.85
2019-03-15T10:41:03.038Z,1.61
2019-03-15T10:42:02.884Z,2.21
2019-03-15T10:43:02.963Z,3.27
2019-03-15T10:44:04.257Z,3.68
2019-03-15T10:45:02.962Z,3.48
2019-03-15T10:46:05.958Z,3.47
2019-03-15T10:47:03.487Z,2.94
2019-03-15T10:48:02.774Z,3.31
2019-03-15T10:49:03.553Z,0.98
2019-03-15T10:50:03.610Z,0.93
2019-03-15T10:51:03.387Z,2.92
2019-03-15T10:52:03.635Z,5.08
2019-03-15T10:53:03.605Z,1.02
2019-03-15T10:54:03.386Z,1.21
2019-03-15T10:55:03.423Z,1.97
2019-03-15T10:56:03.266Z,1.65
2019-03-15T10:57:03.182Z,1.85
2019-03-15T10:58:03.586Z,1.19
2019-03-15T10:59:03.423Z,1.58
2019-03-15T11:00:03.384Z,0.71
2019-03-15T11:01:03.314Z,0.68
2019-03-15T11:02:03.033Z,1.33
2019-03-15T11:03:03.202Z,1.39
2019-03-15T11:04:03.403Z,2.51
2019-03-15T11:05:03.313Z,1.42
2019-03-15T11:06:03.051Z,2.43
2019-03-15T11:07:02.699Z,2.22
2019-03-15T11:08:02.847Z,3.44
2019-03-15T11:09:02.931Z,10.05
2019-03-15T11:10:02.800Z,3.39
2019-03-15T11:11:02.902Z,3.39
2019-03-15T11:12:03.058Z,3.39
2019-03-15T11:13:02.696Z,1.25
2019-03-15T11:14:03.000Z,1.25
2019-03-15T11:15:02.648Z,0.74
2019-03-15T11:16:02.937Z,3.97
2019-03-15T11:17:02.878Z,1.44
2019-03-15T11:18:03.496Z,1.44
2019-03-15T11:19:03.613Z,3.25
2019-03-15T11:20:03.392Z,2.05
2019-03-15T11:21:03.015Z,2.05
2019-03-15T11:22:03.330Z,1.86
2019-03-15T11:23:03.679Z,8.35
2019-03-15T11:24:03.618Z,4.88
2019-03-15T11:25:03.783Z,3.59
2019-03-15T11:26:12.906Z,2.06
2019-03-15T11:27:02.709Z,3.79
2019-03-15T11:28:03.824Z,1.85
2019-03-15T11:29:03.526Z,2.88
2019-03-15T11:30:03.588Z,1.93
2019-03-15T11:31:03.531Z,2.14
2019-03-15T11:32:03.329Z,1.45
2019-03-15T11:33:03.464Z,2.12
2019-03-15T11:34:03.345Z,3.69
2019-03-15T11:35:03.298Z,2.86
2019-03-15T11:36:03.260Z,4.75
2019-03-15T11:37:03.524Z,4.6
2019-03-15T11:38:03.436Z,1.32
2019-03-15T11:39:02.923Z,1.78
2019-03-15T11:40:03.801Z,1.15
2019-03-15T11:41:03.178Z,4.1
2019-03-15T11:42:03.147Z,3.72
2019-03-15T11:43:03.071Z,2.13
2019-03-15T11:44:02.998Z,3.19
2019-03-15T11:45:03.165Z,2.56
2019-03-15T11:46:03.089Z,1.95
2019-03-15T11:47:03.521Z,2.96
2019-03-15T11:48:04.248Z,2.97
2019-03-15T11:49:03.469Z,3.41
2019-03-15T11:50:03.454Z,2.64
2019-03-15T11:51:03.102Z,4.92
2019-03-15T11:52:02.832Z,1.96
2019-03-15T11:53:02.682Z,1.96
2019-03-15T11:54:02.915Z,1.79
2019-03-15T11:55:03.199Z,1.78
2019-03-15T11:56:03.121Z,1.59
2019-03-15T11:57:03.311Z,1.59
2019-03-15T11:58:03.271Z,3
2019-03-15T11:59:03.121Z,3
2019-03-15T12:00:03.364Z,1.61
2019-03-15T12:01:03.250Z,1.61
2019-03-15T12:02:04.497Z,3.01
2019-03-15T12:03:02.940Z,2.62
2019-03-15T12:04:03.157Z,4.34
2019-03-15T12:05:02.998Z,3.22
2019-03-15T12:06:02.924Z,3.22
2019-03-15T12:07:02.800Z,2.59
2019-03-15T12:08:02.735Z,1.35
2019-03-15T12:09:02.780Z,1.51
2019-03-15T12:10:02.800Z,5.15
2019-03-15T12:11:02.794Z,1.24
2019-03-15T12:12:03.891Z,1.64
2019-03-15T12:13:02.857Z,1.48
2019-03-15T12:14:03.347Z,1.77
2019-03-15T12:15:03.044Z,1.74
2019-03-15T12:16:02.829Z,1.42
2019-03-15T12:17:03.493Z,1.47
2019-03-15T12:18:03.270Z,2.18
2019-03-15T12:19:03.321Z,2.81
2019-03-15T12:20:03.678Z,4.38
2019-03-15T12:21:03.382Z,2.18
2019-03-15T12:22:06.377Z,2.39
2019-03-15T12:23:03.607Z,1.09
2019-03-15T12:24:02.894Z,2.36
2019-03-15T12:25:03.717Z,2.79
2019-03-15T12:26:02.602Z,2.67
2019-03-15T12:27:03.560Z,1.21
2019-03-15T12:28:03.660Z,2.04
2019-03-15T12:29:03.353Z,1.51
2019-03-15T12:30:03.455Z,1.44
2019-03-15T12:31:03.331Z,2.25
2019-03-15T12:32:03.380Z,1.6
2019-03-15T12:33:03.352Z,1.35
2019-03-15T12:34:03.324Z,1.8
2019-03-15T12:35:03.392Z,1.19
2019-03-15T12:36:03.616Z,2.5
2019-03-15T12:37:03.371Z,1.75
2019-03-15T12:38:03.461Z,1.22
2019-03-15T12:39:03.099Z,1.51
2019-03-15T12:40:02.947Z,1.11
2019-03-15T12:41:03.075Z,1.44
2019-03-15T12:42:03.268Z,2.88
2019-03-15T12:43:02.737Z,3.15
2019-03-15T12:44:03.093Z,1.53
2019-03-15T12:45:03.137Z,1.82
2019-03-15T12:46:02.720Z,1.36
2019-03-15T12:47:05.975Z,1.65
2019-03-15T12:48:02.936Z,2.23
2019-03-15T12:49:02.702Z,2.23
2019-03-15T12:50:03.547Z,3.72
2019-03-15T12:51:02.816Z,3.72
2019-03-15T12:52:03.719Z,1.57
2019-03-15T12:53:03.703Z,3.89
2019-03-15T12:54:04.539Z,3.89
2019-03-15T12:55:03.715Z,2.06
2019-03-15T12:56:03.620Z,2.4
2019-03-15T12:57:03.426Z,2.19
2019-03-15T12:58:03.639Z,1.56
2019-03-15T12:59:03.438Z,2.58
2019-03-15T13:00:03.416Z,1.51
2019-03-15T13:01:03.259Z,2.09
2019-03-15T13:02:03.411Z,1.18
2019-03-15T13:03:03.283Z,1.52
2019-03-15T13:04:03.345Z,1.61
2019-03-15T13:05:03.261Z,1.65
2019-03-15T13:06:03.439Z,1.89
2019-03-15T13:07:03.177Z,1.69
2019-03-15T13:08:03.160Z,2.94
2019-03-15T13:09:03.248Z,1.4
2019-03-15T13:10:02.828Z,4.15
2019-03-15T13:11:03.122Z,3.38
2019-03-15T13:12:03.262Z,1.86
2019-03-15T13:13:03.254Z,2.01
2019-03-15T13:14:03.241Z,1.3
2019-03-15T13:15:03.142Z,2.4
2019-03-15T13:16:03.174Z,1.98
2019-03-15T13:17:03.019Z,1.82
2019-03-15T13:18:02.860Z,2.79